sensor_id;sensor_type;location;lat;lon;timestamp;P1;durP1;ratioP1;P2;durP2;ratioP2
10880;SDS011;5493;48.884;8.338;2022-11-20T00:02:07;10.50;;;5.07;;
10880;SDS011;5493;48.884;8.338;2022-11-20T00:04:34;10.87;;;5.47;;
10880;SDS011;5493;48.884;8.338;2022-11-20T00:07:02;13.23;;;5.67;;
10880;SDS011;5493;48.884;8.338;2022-11-20T00:09:28;6.50;;;4.37;;
10880;SDS011;5493;48.884;8.338;2022-11-20T00:11:55;10.00;;;4.97;;
10880;SDS011;5493;48.884;8.338;2022-11-20T00:14:22;10.63;;;5.53;;
10880;SDS011;5493;48.884;8.338;2022-11-20T00:16:48;7.77;;;5.00;;
10880;SDS011;5493;48.884;8.338;2022-11-20T00:19:15;7.03;;;3.70;;
10880;SDS011;5493;48.884;8.338;2022-11-20T00:21:41;4.33;;;2.97;;
10880;SDS011;5493;48.884;8.338;2022-11-20T00:24:09;6.57;;;3.17;;
10880;SDS011;5493;48.884;8.338;2022-11-20T00:26:36;5.17;;;3.37;;
10880;SDS011;5493;48.884;8.338;2022-11-20T00:29:03;4.50;;;3.20;;
10880;SDS011;5493;48.884;8.338;2022-11-20T00:31:30;5.43;;;3.00;;
10880;SDS011;5493;48.884;8.338;2022-11-20T00:33:58;5.40;;;2.90;;
10880;SDS011;5493;48.884;8.338;2022-11-20T00:36:25;4.03;;;2.33;;
10880;SDS011;5493;48.884;8.338;2022-11-20T00:38:53;5.90;;;2.90;;
10880;SDS011;5493;48.884;8.338;2022-11-20T00:41:22;3.50;;;2.97;;
10880;SDS011;5493;48.884;8.338;2022-11-20T00:43:51;5.63;;;3.33;;
10880;SDS011;5493;48.884;8.338;2022-11-20T00:46:19;4.87;;;3.33;;
10880;SDS011;5493;48.884;8.338;2022-11-20T00:48:46;6.00;;;3.30;;
10880;SDS011;5493;48.884;8.338;2022-11-20T00:51:14;4.87;;;3.03;;
10880;SDS011;5493;48.884;8.338;2022-11-20T00:53:42;4.53;;;3.60;;
10880;SDS011;5493;48.884;8.338;2022-11-20T00:56:10;7.23;;;3.80;;
10880;SDS011;5493;48.884;8.338;2022-11-20T00:58:39;3.37;;;2.87;;
10880;SDS011;5493;48.884;8.338;2022-11-20T01:01:08;6.57;;;4.87;;
10880;SDS011;5493;48.884;8.338;2022-11-20T01:03:36;5.83;;;3.97;;
10880;SDS011;5493;48.884;8.338;2022-11-20T01:06:05;3.60;;;2.60;;
10880;SDS011;5493;48.884;8.338;2022-11-20T01:08:33;3.77;;;2.67;;
10880;SDS011;5493;48.884;8.338;2022-11-20T01:11:01;5.67;;;3.43;;
10880;SDS011;5493;48.884;8.338;2022-11-20T01:13:29;5.53;;;3.27;;
10880;SDS011;5493;48.884;8.338;2022-11-20T01:16:08;4.03;;;2.83;;
10880;SDS011;5493;48.884;8.338;2022-11-20T01:18:36;7.23;;;3.30;;
10880;SDS011;5493;48.884;8.338;2022-11-20T01:21:04;5.47;;;3.47;;
10880;SDS011;5493;48.884;8.338;2022-11-20T01:23:32;5.70;;;3.40;;
10880;SDS011;5493;48.884;8.338;2022-11-20T01:26:00;6.37;;;3.63;;
10880;SDS011;5493;48.884;8.338;2022-11-20T01:28:28;6.27;;;3.17;;
10880;SDS011;5493;48.884;8.338;2022-11-20T01:30:55;6.60;;;3.63;;
10880;SDS011;5493;48.884;8.338;2022-11-20T01:33:23;5.03;;;3.47;;
10880;SDS011;5493;48.884;8.338;2022-11-20T01:35:50;6.43;;;3.67;;
10880;SDS011;5493;48.884;8.338;2022-11-20T01:38:16;2.57;;;2.37;;
10880;SDS011;5493;48.884;8.338;2022-11-20T01:40:45;6.67;;;3.40;;
10880;SDS011;5493;48.884;8.338;2022-11-20T01:43:13;4.13;;;2.70;;
10880;SDS011;5493;48.884;8.338;2022-11-20T01:45:56;3.03;;;2.53;;
10880;SDS011;5493;48.884;8.338;2022-11-20T01:48:28;4.50;;;3.07;;
10880;SDS011;5493;48.884;8.338;2022-11-20T01:50:59;5.47;;;2.57;;
10880;SDS011;5493;48.884;8.338;2022-11-20T01:53:28;5.20;;;2.90;;
10880;SDS011;5493;48.884;8.338;2022-11-20T01:56:01;3.63;;;2.60;;
10880;SDS011;5493;48.884;8.338;2022-11-20T01:58:30;3.53;;;2.70;;
10880;SDS011;5493;48.884;8.338;2022-11-20T02:01:02;1.57;;;1.33;;
10880;SDS011;5493;48.884;8.338;2022-11-20T02:03:30;3.77;;;2.93;;
10880;SDS011;5493;48.884;8.338;2022-11-20T02:06:00;3.43;;;2.37;;
10880;SDS011;5493;48.884;8.338;2022-11-20T02:08:31;3.77;;;2.60;;
10880;SDS011;5493;48.884;8.338;2022-11-20T02:10:59;3.77;;;2.97;;
10880;SDS011;5493;48.884;8.338;2022-11-20T02:13:25;4.30;;;2.90;;
10880;SDS011;5493;48.884;8.338;2022-11-20T02:16:16;5.40;;;2.53;;
10880;SDS011;5493;48.884;8.338;2022-11-20T02:18:48;4.10;;;2.20;;
10880;SDS011;5493;48.884;8.338;2022-11-20T02:21:24;3.63;;;2.53;;
10880;SDS011;5493;48.884;8.338;2022-11-20T02:24:10;4.13;;;2.70;;
10880;SDS011;5493;48.884;8.338;2022-11-20T02:26:41;5.17;;;3.17;;
10880;SDS011;5493;48.884;8.338;2022-11-20T02:29:11;4.10;;;2.60;;
10880;SDS011;5493;48.884;8.338;2022-11-20T02:31:40;5.27;;;2.33;;
10880;SDS011;5493;48.884;8.338;2022-11-20T02:34:08;3.13;;;2.03;;
10880;SDS011;5493;48.884;8.338;2022-11-20T02:36:35;3.20;;;2.30;;
10880;SDS011;5493;48.884;8.338;2022-11-20T02:39:04;4.83;;;2.13;;
10880;SDS011;5493;48.884;8.338;2022-11-20T02:41:36;2.80;;;2.47;;
10880;SDS011;5493;48.884;8.338;2022-11-20T02:44:04;6.50;;;2.70;;
10880;SDS011;5493;48.884;8.338;2022-11-20T02:46:31;4.90;;;2.17;;
10880;SDS011;5493;48.884;8.338;2022-11-20T02:48:58;2.33;;;1.83;;
10880;SDS011;5493;48.884;8.338;2022-11-20T02:51:25;4.20;;;2.23;;
10880;SDS011;5493;48.884;8.338;2022-11-20T02:53:51;2.87;;;2.37;;
10880;SDS011;5493;48.884;8.338;2022-11-20T02:56:18;4.57;;;2.10;;
10880;SDS011;5493;48.884;8.338;2022-11-20T02:58:46;1.80;;;1.70;;
10880;SDS011;5493;48.884;8.338;2022-11-20T03:01:13;3.37;;;2.50;;
10880;SDS011;5493;48.884;8.338;2022-11-20T03:03:39;5.13;;;2.50;;
10880;SDS011;5493;48.884;8.338;2022-11-20T03:06:06;3.03;;;2.03;;
10880;SDS011;5493;48.884;8.338;2022-11-20T03:08:33;4.33;;;2.50;;
10880;SDS011;5493;48.884;8.338;2022-11-20T03:11:04;2.83;;;1.90;;
10880;SDS011;5493;48.884;8.338;2022-11-20T03:13:32;3.37;;;2.30;;
10880;SDS011;5493;48.884;8.338;2022-11-20T03:16:05;2.37;;;1.80;;
10880;SDS011;5493;48.884;8.338;2022-11-20T03:18:33;5.30;;;2.33;;
10880;SDS011;5493;48.884;8.338;2022-11-20T03:20:59;4.33;;;1.73;;
10880;SDS011;5493;48.884;8.338;2022-11-20T03:23:28;2.87;;;2.10;;
10880;SDS011;5493;48.884;8.338;2022-11-20T03:25:55;2.73;;;2.27;;
10880;SDS011;5493;48.884;8.338;2022-11-20T03:28:21;3.20;;;2.43;;
10880;SDS011;5493;48.884;8.338;2022-11-20T03:30:48;4.87;;;2.43;;
10880;SDS011;5493;48.884;8.338;2022-11-20T03:33:16;3.10;;;2.13;;
10880;SDS011;5493;48.884;8.338;2022-11-20T03:35:42;3.03;;;2.43;;
10880;SDS011;5493;48.884;8.338;2022-11-20T03:38:09;3.70;;;2.13;;
10880;SDS011;5493;48.884;8.338;2022-11-20T03:40:35;2.27;;;1.93;;
10880;SDS011;5493;48.884;8.338;2022-11-20T03:43:02;4.13;;;2.70;;
10880;SDS011;5493;48.884;8.338;2022-11-20T03:45:28;3.57;;;2.63;;
10880;SDS011;5493;48.884;8.338;2022-11-20T03:47:55;4.30;;;2.20;;
10880;SDS011;5493;48.884;8.338;2022-11-20T03:50:23;3.50;;;2.43;;
10880;SDS011;5493;48.884;8.338;2022-11-20T03:52:49;3.33;;;2.60;;
10880;SDS011;5493;48.884;8.338;2022-11-20T03:55:16;2.90;;;2.10;;
10880;SDS011;5493;48.884;8.338;2022-11-20T03:57:43;4.30;;;2.80;;
10880;SDS011;5493;48.884;8.338;2022-11-20T04:00:10;4.33;;;2.93;;
10880;SDS011;5493;48.884;8.338;2022-11-20T04:02:37;4.53;;;2.20;;
10880;SDS011;5493;48.884;8.338;2022-11-20T04:05:04;4.27;;;2.43;;
10880;SDS011;5493;48.884;8.338;2022-11-20T04:07:33;5.03;;;2.97;;
10880;SDS011;5493;48.884;8.338;2022-11-20T04:10:00;3.80;;;2.90;;
10880;SDS011;5493;48.884;8.338;2022-11-20T04:12:26;2.73;;;2.20;;
10880;SDS011;5493;48.884;8.338;2022-11-20T04:14:53;3.80;;;2.70;;
10880;SDS011;5493;48.884;8.338;2022-11-20T04:17:19;3.00;;;2.07;;
10880;SDS011;5493;48.884;8.338;2022-11-20T04:19:46;4.83;;;2.83;;
10880;SDS011;5493;48.884;8.338;2022-11-20T04:22:12;5.27;;;3.13;;
10880;SDS011;5493;48.884;8.338;2022-11-20T04:24:40;4.07;;;2.80;;
10880;SDS011;5493;48.884;8.338;2022-11-20T04:27:07;4.13;;;2.93;;
10880;SDS011;5493;48.884;8.338;2022-11-20T04:29:33;4.77;;;2.27;;
10880;SDS011;5493;48.884;8.338;2022-11-20T04:32:00;3.80;;;2.50;;
10880;SDS011;5493;48.884;8.338;2022-11-20T04:34:27;3.70;;;2.47;;
10880;SDS011;5493;48.884;8.338;2022-11-20T04:36:53;2.70;;;2.33;;
10880;SDS011;5493;48.884;8.338;2022-11-20T04:39:20;9.53;;;2.30;;
10880;SDS011;5493;48.884;8.338;2022-11-20T04:41:48;4.67;;;2.07;;
10880;SDS011;5493;48.884;8.338;2022-11-20T04:44:34;3.10;;;2.40;;
10880;SDS011;5493;48.884;8.338;2022-11-20T04:47:01;4.13;;;2.13;;
10880;SDS011;5493;48.884;8.338;2022-11-20T04:49:27;3.70;;;1.93;;
10880;SDS011;5493;48.884;8.338;2022-11-20T04:51:54;2.43;;;2.00;;
10880;SDS011;5493;48.884;8.338;2022-11-20T04:54:20;5.43;;;2.67;;
10880;SDS011;5493;48.884;8.338;2022-11-20T04:56:48;4.53;;;2.40;;
10880;SDS011;5493;48.884;8.338;2022-11-20T04:59:15;3.17;;;2.30;;
10880;SDS011;5493;48.884;8.338;2022-11-20T05:01:42;4.23;;;2.57;;
10880;SDS011;5493;48.884;8.338;2022-11-20T05:04:08;3.90;;;1.83;;
10880;SDS011;5493;48.884;8.338;2022-11-20T05:06:35;2.60;;;1.90;;
10880;SDS011;5493;48.884;8.338;2022-11-20T05:09:01;2.67;;;1.67;;
10880;SDS011;5493;48.884;8.338;2022-11-20T05:11:28;2.07;;;1.67;;
10880;SDS011;5493;48.884;8.338;2022-11-20T05:13:57;1.60;;;1.10;;
10880;SDS011;5493;48.884;8.338;2022-11-20T05:16:25;2.03;;;1.40;;
10880;SDS011;5493;48.884;8.338;2022-11-20T05:18:52;3.03;;;1.90;;
10880;SDS011;5493;48.884;8.338;2022-11-20T05:21:20;2.53;;;1.60;;
10880;SDS011;5493;48.884;8.338;2022-11-20T05:23:47;2.47;;;1.60;;
10880;SDS011;5493;48.884;8.338;2022-11-20T05:26:14;2.07;;;1.53;;
10880;SDS011;5493;48.884;8.338;2022-11-20T05:28:42;2.43;;;1.70;;
10880;SDS011;5493;48.884;8.338;2022-11-20T05:31:11;2.27;;;1.60;;
10880;SDS011;5493;48.884;8.338;2022-11-20T05:33:39;2.73;;;1.60;;
10880;SDS011;5493;48.884;8.338;2022-11-20T05:36:07;2.20;;;1.70;;
10880;SDS011;5493;48.884;8.338;2022-11-20T05:38:34;2.60;;;1.53;;
10880;SDS011;5493;48.884;8.338;2022-11-20T05:41:04;1.70;;;1.60;;
10880;SDS011;5493;48.884;8.338;2022-11-20T05:43:32;2.17;;;1.60;;
10880;SDS011;5493;48.884;8.338;2022-11-20T05:45:59;2.53;;;1.30;;
10880;SDS011;5493;48.884;8.338;2022-11-20T05:48:27;2.27;;;1.60;;
10880;SDS011;5493;48.884;8.338;2022-11-20T05:50:55;1.80;;;1.50;;
10880;SDS011;5493;48.884;8.338;2022-11-20T05:53:23;3.10;;;1.50;;
10880;SDS011;5493;48.884;8.338;2022-11-20T05:55:55;2.00;;;1.60;;
10880;SDS011;5493;48.884;8.338;2022-11-20T05:58:22;2.20;;;1.33;;
10880;SDS011;5493;48.884;8.338;2022-11-20T06:00:49;2.03;;;1.50;;
10880;SDS011;5493;48.884;8.338;2022-11-20T06:03:16;2.60;;;1.27;;
10880;SDS011;5493;48.884;8.338;2022-11-20T06:05:44;2.40;;;1.47;;
10880;SDS011;5493;48.884;8.338;2022-11-20T06:08:10;2.40;;;1.60;;
10880;SDS011;5493;48.884;8.338;2022-11-20T06:10:37;2.67;;;1.47;;
10880;SDS011;5493;48.884;8.338;2022-11-20T06:13:03;1.70;;;1.47;;
10880;SDS011;5493;48.884;8.338;2022-11-20T06:15:30;1.63;;;1.50;;
10880;SDS011;5493;48.884;8.338;2022-11-20T06:17:56;1.47;;;1.37;;
10880;SDS011;5493;48.884;8.338;2022-11-20T06:20:23;1.40;;;1.10;;
10880;SDS011;5493;48.884;8.338;2022-11-20T06:22:51;2.30;;;1.47;;
10880;SDS011;5493;48.884;8.338;2022-11-20T06:25:18;3.10;;;1.87;;
10880;SDS011;5493;48.884;8.338;2022-11-20T06:27:44;1.90;;;1.37;;
10880;SDS011;5493;48.884;8.338;2022-11-20T06:30:12;1.70;;;1.60;;
10880;SDS011;5493;48.884;8.338;2022-11-20T06:32:38;1.90;;;1.20;;
10880;SDS011;5493;48.884;8.338;2022-11-20T06:35:05;1.50;;;1.40;;
10880;SDS011;5493;48.884;8.338;2022-11-20T06:37:32;1.70;;;1.57;;
10880;SDS011;5493;48.884;8.338;2022-11-20T06:40:00;1.70;;;1.43;;
10880;SDS011;5493;48.884;8.338;2022-11-20T06:42:27;2.27;;;1.40;;
10880;SDS011;5493;48.884;8.338;2022-11-20T06:44:53;2.30;;;1.33;;
10880;SDS011;5493;48.884;8.338;2022-11-20T06:47:20;1.90;;;1.40;;
10880;SDS011;5493;48.884;8.338;2022-11-20T06:49:46;1.60;;;1.27;;
10880;SDS011;5493;48.884;8.338;2022-11-20T06:52:13;1.50;;;1.40;;
10880;SDS011;5493;48.884;8.338;2022-11-20T06:54:39;1.20;;;1.10;;
10880;SDS011;5493;48.884;8.338;2022-11-20T06:57:07;1.80;;;1.13;;
10880;SDS011;5493;48.884;8.338;2022-11-20T06:59:34;2.90;;;1.60;;
10880;SDS011;5493;48.884;8.338;2022-11-20T07:02:00;2.50;;;1.63;;
10880;SDS011;5493;48.884;8.338;2022-11-20T07:04:27;3.00;;;1.60;;
10880;SDS011;5493;48.884;8.338;2022-11-20T07:06:53;3.03;;;1.60;;
10880;SDS011;5493;48.884;8.338;2022-11-20T07:09:20;3.80;;;1.50;;
10880;SDS011;5493;48.884;8.338;2022-11-20T07:11:47;3.00;;;1.40;;
10880;SDS011;5493;48.884;8.338;2022-11-20T07:14:14;1.50;;;1.40;;
10880;SDS011;5493;48.884;8.338;2022-11-20T07:16:41;2.20;;;1.50;;
10880;SDS011;5493;48.884;8.338;2022-11-20T07:19:08;3.07;;;1.40;;
10880;SDS011;5493;48.884;8.338;2022-11-20T07:21:34;3.57;;;2.00;;
10880;SDS011;5493;48.884;8.338;2022-11-20T07:24:01;10.67;;;2.23;;
10880;SDS011;5493;48.884;8.338;2022-11-20T07:26:27;2.77;;;1.97;;
10880;SDS011;5493;48.884;8.338;2022-11-20T07:28:54;3.23;;;1.60;;
10880;SDS011;5493;48.884;8.338;2022-11-20T07:31:22;2.67;;;1.50;;
10880;SDS011;5493;48.884;8.338;2022-11-20T07:33:48;3.30;;;1.60;;
10880;SDS011;5493;48.884;8.338;2022-11-20T07:36:15;2.20;;;1.60;;
10880;SDS011;5493;48.884;8.338;2022-11-20T07:38:42;1.37;;;1.27;;
10880;SDS011;5493;48.884;8.338;2022-11-20T07:41:08;2.33;;;1.70;;
10880;SDS011;5493;48.884;8.338;2022-11-20T07:43:35;1.50;;;1.30;;
10880;SDS011;5493;48.884;8.338;2022-11-20T07:46:01;1.63;;;1.37;;
10880;SDS011;5493;48.884;8.338;2022-11-20T07:48:30;1.47;;;1.20;;
10880;SDS011;5493;48.884;8.338;2022-11-20T07:50:57;1.57;;;1.23;;
10880;SDS011;5493;48.884;8.338;2022-11-20T07:53:23;3.30;;;1.70;;
10880;SDS011;5493;48.884;8.338;2022-11-20T07:55:50;2.87;;;1.37;;
10880;SDS011;5493;48.884;8.338;2022-11-20T07:58:17;1.30;;;1.20;;
10880;SDS011;5493;48.884;8.338;2022-11-20T08:00:44;1.60;;;1.37;;
10880;SDS011;5493;48.884;8.338;2022-11-20T08:03:11;1.10;;;1.00;;
10880;SDS011;5493;48.884;8.338;2022-11-20T08:05:41;1.53;;;1.13;;
10880;SDS011;5493;48.884;8.338;2022-11-20T08:08:08;1.67;;;1.40;;
10880;SDS011;5493;48.884;8.338;2022-11-20T08:10:34;1.50;;;1.10;;
10880;SDS011;5493;48.884;8.338;2022-11-20T08:13:01;2.80;;;1.40;;
10880;SDS011;5493;48.884;8.338;2022-11-20T08:15:47;2.67;;;1.60;;
10880;SDS011;5493;48.884;8.338;2022-11-20T08:18:15;2.10;;;1.53;;
10880;SDS011;5493;48.884;8.338;2022-11-20T08:20:43;1.93;;;1.37;;
10880;SDS011;5493;48.884;8.338;2022-11-20T08:23:10;1.43;;;1.20;;
10880;SDS011;5493;48.884;8.338;2022-11-20T08:25:37;5.00;;;1.70;;
10880;SDS011;5493;48.884;8.338;2022-11-20T08:28:05;1.77;;;1.30;;
10880;SDS011;5493;48.884;8.338;2022-11-20T08:30:32;1.10;;;1.00;;
10880;SDS011;5493;48.884;8.338;2022-11-20T08:33:00;1.07;;;0.93;;
10880;SDS011;5493;48.884;8.338;2022-11-20T08:35:28;3.30;;;1.80;;
10880;SDS011;5493;48.884;8.338;2022-11-20T08:37:56;1.47;;;1.00;;
10880;SDS011;5493;48.884;8.338;2022-11-20T08:40:22;2.17;;;1.53;;
10880;SDS011;5493;48.884;8.338;2022-11-20T08:42:50;4.27;;;2.10;;
10880;SDS011;5493;48.884;8.338;2022-11-20T08:45:17;4.70;;;2.07;;
10880;SDS011;5493;48.884;8.338;2022-11-20T08:47:45;4.83;;;2.70;;
10880;SDS011;5493;48.884;8.338;2022-11-20T08:50:12;1.90;;;1.57;;
10880;SDS011;5493;48.884;8.338;2022-11-20T08:52:40;2.27;;;1.37;;
10880;SDS011;5493;48.884;8.338;2022-11-20T08:55:09;3.73;;;2.03;;
10880;SDS011;5493;48.884;8.338;2022-11-20T08:57:36;3.33;;;2.00;;
10880;SDS011;5493;48.884;8.338;2022-11-20T09:00:03;2.00;;;1.80;;
10880;SDS011;5493;48.884;8.338;2022-11-20T09:02:31;2.70;;;1.80;;
10880;SDS011;5493;48.884;8.338;2022-11-20T09:04:58;2.60;;;2.10;;
10880;SDS011;5493;48.884;8.338;2022-11-20T09:07:27;1.93;;;1.43;;
10880;SDS011;5493;48.884;8.338;2022-11-20T09:09:54;5.10;;;2.23;;
10880;SDS011;5493;48.884;8.338;2022-11-20T09:12:22;4.67;;;3.10;;
10880;SDS011;5493;48.884;8.338;2022-11-20T09:14:48;4.80;;;3.20;;
10880;SDS011;5493;48.884;8.338;2022-11-20T09:17:15;3.10;;;2.50;;
10880;SDS011;5493;48.884;8.338;2022-11-20T09:19:42;4.03;;;2.60;;
10880;SDS011;5493;48.884;8.338;2022-11-20T09:22:08;2.10;;;1.80;;
10880;SDS011;5493;48.884;8.338;2022-11-20T09:24:35;3.57;;;2.47;;
10880;SDS011;5493;48.884;8.338;2022-11-20T09:27:02;3.37;;;2.20;;
10880;SDS011;5493;48.884;8.338;2022-11-20T09:29:31;6.03;;;2.70;;
10880;SDS011;5493;48.884;8.338;2022-11-20T09:31:58;2.47;;;1.90;;
10880;SDS011;5493;48.884;8.338;2022-11-20T09:34:24;2.57;;;2.33;;
10880;SDS011;5493;48.884;8.338;2022-11-20T09:36:51;2.83;;;2.10;;
10880;SDS011;5493;48.884;8.338;2022-11-20T09:39:17;2.00;;;1.70;;
10880;SDS011;5493;48.884;8.338;2022-11-20T09:41:49;4.13;;;2.23;;
10880;SDS011;5493;48.884;8.338;2022-11-20T09:44:51;3.27;;;2.30;;
10880;SDS011;5493;48.884;8.338;2022-11-20T09:47:42;3.80;;;2.03;;
10880;SDS011;5493;48.884;8.338;2022-11-20T09:50:25;2.57;;;2.37;;
10880;SDS011;5493;48.884;8.338;2022-11-20T09:53:00;2.93;;;2.20;;
10880;SDS011;5493;48.884;8.338;2022-11-20T09:55:37;2.43;;;2.20;;
10880;SDS011;5493;48.884;8.338;2022-11-20T09:58:05;2.13;;;1.47;;
10880;SDS011;5493;48.884;8.338;2022-11-20T10:00:34;3.90;;;2.47;;
10880;SDS011;5493;48.884;8.338;2022-11-20T10:03:05;4.00;;;2.40;;
10880;SDS011;5493;48.884;8.338;2022-11-20T10:05:40;4.43;;;2.70;;
10880;SDS011;5493;48.884;8.338;2022-11-20T10:08:12;4.57;;;2.40;;
10880;SDS011;5493;48.884;8.338;2022-11-20T10:10:44;3.23;;;2.40;;
10880;SDS011;5493;48.884;8.338;2022-11-20T10:13:28;5.17;;;2.90;;
10880;SDS011;5493;48.884;8.338;2022-11-20T10:16:11;5.53;;;3.00;;
10880;SDS011;5493;48.884;8.338;2022-11-20T10:18:51;3.73;;;2.50;;
10880;SDS011;5493;48.884;8.338;2022-11-20T10:21:30;3.73;;;2.37;;
10880;SDS011;5493;48.884;8.338;2022-11-20T10:24:23;7.10;;;3.67;;
10880;SDS011;5493;48.884;8.338;2022-11-20T10:27:00;11.37;;;4.20;;
10880;SDS011;5493;48.884;8.338;2022-11-20T10:29:36;5.43;;;3.30;;
10880;SDS011;5493;48.884;8.338;2022-11-20T10:32:09;5.07;;;3.10;;
10880;SDS011;5493;48.884;8.338;2022-11-20T10:34:43;5.93;;;2.70;;
10880;SDS011;5493;48.884;8.338;2022-11-20T10:37:15;3.40;;;2.20;;
10880;SDS011;5493;48.884;8.338;2022-11-20T10:39:47;1.53;;;1.43;;
10880;SDS011;5493;48.884;8.338;2022-11-20T10:42:21;3.67;;;2.63;;
10880;SDS011;5493;48.884;8.338;2022-11-20T10:44:58;3.27;;;2.33;;
10880;SDS011;5493;48.884;8.338;2022-11-20T10:47:31;3.73;;;2.40;;
10880;SDS011;5493;48.884;8.338;2022-11-20T10:50:01;4.10;;;2.27;;
10880;SDS011;5493;48.884;8.338;2022-11-20T10:52:32;4.93;;;2.60;;
10880;SDS011;5493;48.884;8.338;2022-11-20T10:55:11;5.07;;;2.50;;
10880;SDS011;5493;48.884;8.338;2022-11-20T10:57:52;4.27;;;2.90;;
10880;SDS011;5493;48.884;8.338;2022-11-20T11:00:23;5.73;;;2.37;;
10880;SDS011;5493;48.884;8.338;2022-11-20T11:02:52;3.13;;;2.57;;
10880;SDS011;5493;48.884;8.338;2022-11-20T11:05:24;7.53;;;2.63;;
10880;SDS011;5493;48.884;8.338;2022-11-20T11:07:58;3.43;;;2.37;;
10880;SDS011;5493;48.884;8.338;2022-11-20T11:10:28;4.00;;;2.47;;
10880;SDS011;5493;48.884;8.338;2022-11-20T11:12:59;3.47;;;2.37;;
10880;SDS011;5493;48.884;8.338;2022-11-20T11:15:26;5.93;;;3.50;;
10880;SDS011;5493;48.884;8.338;2022-11-20T11:17:56;4.57;;;2.23;;
10880;SDS011;5493;48.884;8.338;2022-11-20T11:20:23;2.70;;;1.90;;
10880;SDS011;5493;48.884;8.338;2022-11-20T11:22:51;2.47;;;2.10;;
10880;SDS011;5493;48.884;8.338;2022-11-20T11:25:27;3.03;;;2.03;;
10880;SDS011;5493;48.884;8.338;2022-11-20T11:27:56;4.63;;;1.83;;
10880;SDS011;5493;48.884;8.338;2022-11-20T11:30:25;2.90;;;2.07;;
10880;SDS011;5493;48.884;8.338;2022-11-20T11:33:03;3.13;;;2.20;;
10880;SDS011;5493;48.884;8.338;2022-11-20T11:35:32;2.30;;;1.80;;
10880;SDS011;5493;48.884;8.338;2022-11-20T11:38:03;2.23;;;1.57;;
10880;SDS011;5493;48.884;8.338;2022-11-20T11:40:33;3.77;;;2.03;;
10880;SDS011;5493;48.884;8.338;2022-11-20T11:43:02;9.13;;;4.10;;
10880;SDS011;5493;48.884;8.338;2022-11-20T11:45:52;3.60;;;2.47;;
10880;SDS011;5493;48.884;8.338;2022-11-20T11:48:20;3.37;;;1.97;;
10880;SDS011;5493;48.884;8.338;2022-11-20T11:50:48;4.40;;;2.40;;
10880;SDS011;5493;48.884;8.338;2022-11-20T11:53:16;3.83;;;2.17;;
10880;SDS011;5493;48.884;8.338;2022-11-20T11:55:45;3.60;;;2.17;;
10880;SDS011;5493;48.884;8.338;2022-11-20T11:58:15;2.57;;;1.90;;
10880;SDS011;5493;48.884;8.338;2022-11-20T12:00:54;2.30;;;1.27;;
10880;SDS011;5493;48.884;8.338;2022-11-20T12:03:27;2.80;;;1.80;;
10880;SDS011;5493;48.884;8.338;2022-11-20T12:06:01;2.90;;;1.93;;
10880;SDS011;5493;48.884;8.338;2022-11-20T12:08:35;3.13;;;1.70;;
10880;SDS011;5493;48.884;8.338;2022-11-20T12:11:11;1.77;;;1.27;;
10880;SDS011;5493;48.884;8.338;2022-11-20T12:13:44;3.33;;;1.60;;
10880;SDS011;5493;48.884;8.338;2022-11-20T12:16:15;1.47;;;1.20;;
10880;SDS011;5493;48.884;8.338;2022-11-20T12:18:46;2.07;;;1.57;;
10880;SDS011;5493;48.884;8.338;2022-11-20T12:21:18;5.10;;;2.00;;
10880;SDS011;5493;48.884;8.338;2022-11-20T12:23:50;6.10;;;1.90;;
10880;SDS011;5493;48.884;8.338;2022-11-20T12:26:32;2.33;;;1.77;;
10880;SDS011;5493;48.884;8.338;2022-11-20T12:29:08;3.73;;;1.73;;
10880;SDS011;5493;48.884;8.338;2022-11-20T12:31:49;4.57;;;2.97;;
10880;SDS011;5493;48.884;8.338;2022-11-20T12:34:32;2.60;;;1.70;;
10880;SDS011;5493;48.884;8.338;2022-11-20T12:37:12;2.63;;;1.97;;
10880;SDS011;5493;48.884;8.338;2022-11-20T12:39:45;4.67;;;1.93;;
10880;SDS011;5493;48.884;8.338;2022-11-20T12:42:29;6.73;;;1.77;;
10880;SDS011;5493;48.884;8.338;2022-11-20T12:45:31;2.73;;;1.97;;
10880;SDS011;5493;48.884;8.338;2022-11-20T12:51:09;1.67;;;1.00;;
10880;SDS011;5493;48.884;8.338;2022-11-20T12:53:48;2.30;;;0.80;;
10880;SDS011;5493;48.884;8.338;2022-11-20T12:56:29;1.23;;;0.97;;
10880;SDS011;5493;48.884;8.338;2022-11-20T12:59:08;3.30;;;1.50;;
10880;SDS011;5493;48.884;8.338;2022-11-20T13:01:50;2.17;;;1.00;;
10880;SDS011;5493;48.884;8.338;2022-11-20T13:04:34;4.77;;;0.77;;
10880;SDS011;5493;48.884;8.338;2022-11-20T13:07:17;1.83;;;1.00;;
10880;SDS011;5493;48.884;8.338;2022-11-20T13:09:45;1.17;;;0.37;;
10880;SDS011;5493;48.884;8.338;2022-11-20T13:12:15;2.90;;;0.90;;
10880;SDS011;5493;48.884;8.338;2022-11-20T13:14:45;2.60;;;1.20;;
10880;SDS011;5493;48.884;8.338;2022-11-20T13:17:20;3.17;;;2.00;;
10880;SDS011;5493;48.884;8.338;2022-11-20T13:19:52;2.90;;;1.23;;
10880;SDS011;5493;48.884;8.338;2022-11-20T13:22:27;2.73;;;1.50;;
10880;SDS011;5493;48.884;8.338;2022-11-20T13:25:08;4.83;;;2.53;;
10880;SDS011;5493;48.884;8.338;2022-11-20T13:27:35;3.43;;;2.10;;
10880;SDS011;5493;48.884;8.338;2022-11-20T13:30:13;5.47;;;1.97;;
10880;SDS011;5493;48.884;8.338;2022-11-20T13:32:52;3.67;;;2.00;;
10880;SDS011;5493;48.884;8.338;2022-11-20T13:35:24;2.63;;;1.60;;
10880;SDS011;5493;48.884;8.338;2022-11-20T13:38:00;1.40;;;1.10;;
10880;SDS011;5493;48.884;8.338;2022-11-20T13:40:32;3.40;;;1.20;;
10880;SDS011;5493;48.884;8.338;2022-11-20T13:43:15;3.40;;;1.30;;
10880;SDS011;5493;48.884;8.338;2022-11-20T13:45:57;1.50;;;0.80;;
10880;SDS011;5493;48.884;8.338;2022-11-20T13:48:26;3.23;;;1.00;;
10880;SDS011;5493;48.884;8.338;2022-11-20T13:50:59;2.40;;;0.90;;
10880;SDS011;5493;48.884;8.338;2022-11-20T13:53:38;2.00;;;1.00;;
10880;SDS011;5493;48.884;8.338;2022-11-20T13:56:17;3.33;;;0.87;;
10880;SDS011;5493;48.884;8.338;2022-11-20T13:58:52;2.13;;;0.97;;
10880;SDS011;5493;48.884;8.338;2022-11-20T14:01:29;4.30;;;2.40;;
10880;SDS011;5493;48.884;8.338;2022-11-20T14:03:57;1.83;;;1.03;;
10880;SDS011;5493;48.884;8.338;2022-11-20T14:06:26;3.33;;;1.50;;
10880;SDS011;5493;48.884;8.338;2022-11-20T14:08:55;1.30;;;1.00;;
10880;SDS011;5493;48.884;8.338;2022-11-20T14:11:24;1.47;;;1.30;;
10880;SDS011;5493;48.884;8.338;2022-11-20T14:13:56;2.93;;;1.00;;
10880;SDS011;5493;48.884;8.338;2022-11-20T14:16:25;2.47;;;1.50;;
10880;SDS011;5493;48.884;8.338;2022-11-20T14:18:53;4.03;;;1.83;;
10880;SDS011;5493;48.884;8.338;2022-11-20T14:21:21;4.17;;;1.90;;
10880;SDS011;5493;48.884;8.338;2022-11-20T14:23:51;5.90;;;1.87;;
10880;SDS011;5493;48.884;8.338;2022-11-20T14:26:20;2.27;;;1.27;;
10880;SDS011;5493;48.884;8.338;2022-11-20T14:28:47;1.50;;;1.00;;
10880;SDS011;5493;48.884;8.338;2022-11-20T14:31:18;2.30;;;1.00;;
10880;SDS011;5493;48.884;8.338;2022-11-20T14:33:48;2.07;;;1.20;;
10880;SDS011;5493;48.884;8.338;2022-11-20T14:36:16;1.87;;;1.27;;
10880;SDS011;5493;48.884;8.338;2022-11-20T14:38:44;1.33;;;1.13;;
10880;SDS011;5493;48.884;8.338;2022-11-20T14:41:16;1.37;;;1.27;;
10880;SDS011;5493;48.884;8.338;2022-11-20T14:43:46;1.43;;;1.10;;
10880;SDS011;5493;48.884;8.338;2022-11-20T14:46:22;1.90;;;0.83;;
10880;SDS011;5493;48.884;8.338;2022-11-20T14:48:51;1.70;;;1.10;;
10880;SDS011;5493;48.884;8.338;2022-11-20T14:51:30;3.97;;;1.43;;
10880;SDS011;5493;48.884;8.338;2022-11-20T14:54:08;1.60;;;1.10;;
10880;SDS011;5493;48.884;8.338;2022-11-20T14:56:36;3.40;;;1.10;;
10880;SDS011;5493;48.884;8.338;2022-11-20T14:59:04;2.80;;;1.27;;
10880;SDS011;5493;48.884;8.338;2022-11-20T15:01:32;1.73;;;1.20;;
10880;SDS011;5493;48.884;8.338;2022-11-20T15:03:59;1.33;;;0.97;;
10880;SDS011;5493;48.884;8.338;2022-11-20T15:06:27;1.07;;;0.97;;
10880;SDS011;5493;48.884;8.338;2022-11-20T15:08:56;2.73;;;1.60;;
10880;SDS011;5493;48.884;8.338;2022-11-20T15:11:25;1.57;;;1.37;;
10880;SDS011;5493;48.884;8.338;2022-11-20T15:13:55;2.17;;;1.07;;
10880;SDS011;5493;48.884;8.338;2022-11-20T15:16:24;6.20;;;3.93;;
10880;SDS011;5493;48.884;8.338;2022-11-20T15:18:52;3.60;;;2.10;;
10880;SDS011;5493;48.884;8.338;2022-11-20T15:21:20;3.43;;;1.70;;